ADDS METAR Data INFO
IDs: Format: Raw Decoded Include TAF

Data at: 1757 UTC 15 Dec 2017

KMEI 151658Z 33005KT 10SM CLR 07/M02 A3027 RMK AO2 SLP252 T00671017
KMEI 151558Z 35006KT 10SM CLR 05/M02 A3025 RMK AO2 SLP245 T00501022
KMEI 151458Z 34005KT 10SM CLR 04/M01 A3024 RMK AO2 SLP239 T00441006 53031
KMEI 151358Z 34004KT 10SM CLR 03/00 A3019 RMK AO2 SLP223 T00330000
KMEI 151258Z 36006KT 10SM CLR 03/M01 A3017 RMK AO2 SLP216 T00281006
KMEI 151158Z 33004KT 10SM CLR 03/00 A3014 RMK AO2 SLP207 T00280000 10044 20022 53013
KMEI 151058Z AUTO 36006KT 10SM CLR 03/00 A3010 RMK AO2 SLP194 T00280000
KMEI 150958Z AUTO 36007KT 10SM CLR 02/00 A3011 RMK AO2 SLP195 T00220000
KMEI 150858Z AUTO 36007KT 10SM CLR 03/01 A3011 RMK AO2 SLP194 T00330006 53016
KMEI 150758Z AUTO 36006KT 10SM CLR 03/01 A3009 RMK AO2 SLP188 T00330011
KMEI 150658Z AUTO 36005KT 10SM CLR 03/02 A3006 RMK AO2 SLP180 T00330022
KMEI 150558Z AUTO 36003KT 10SM CLR 03/02 A3006 RMK AO2 SLP178 T00330022 10078 20028 401330006 51007
KMEI 150458Z AUTO 00000KT 10SM CLR 03/03 A3005 RMK AO2 SLP176 T00330028
KMEI 150358Z AUTO 00000KT 10SM CLR 04/03 A3005 RMK AO2 SLP175 T00390033
KMEI 150258Z 00000KT 10SM CLR 05/04 A3004 RMK AO2 SLP171 T00500039 53010
KMEI 150158Z 00000KT 10SM CLR 06/04 A3003 RMK AO2 SLP170 T00560044
KMEI 150058Z 00000KT 10SM CLR 07/06 A3001 RMK AO2 SLP165 T00670056
KMEI 142358Z 00000KT 10SM CLR 08/06 A3001 RMK AO2 SLP162 T00780061 10133 20078 53014
KMEI 142258Z 00000KT 10SM CLR 09/07 A2999 RMK AO2 SLP154 T00940067
KMEI 142158Z 00000KT 10SM CLR 11/06 A2997 RMK AO2 SLP149 T01110061
KMEI 142058Z 31003KT 10SM CLR 13/04 A2997 RMK AO2 SLP147 T01280039 55006
KMEI 141958Z 27003KT 10SM CLR 13/03 A2996 RMK AO2 SLP144 T01330028
KMEI 141858Z VRB03KT 10SM CLR 13/02 A2997 RMK AO2 SLP149 T01280022
KMEI 141758Z 00000KT 10SM CLR 12/02 A2999 RMK AO2 SLP154 T01220022 10122 20017 58004
KMEI 141658Z 28004KT 10SM CLR 12/03 A3002 RMK AO2 SLP166 T01170028
KMEI 141558Z 28005KT 10SM CLR 11/03 A3002 RMK AO2 SLP165 T01060033
KMEI 141458Z 19004KT 10SM CLR 06/03 A3000 RMK AO2 SLP158 T00560033 53015
KMEI 141358Z 00000KT 10SM CLR 03/01 A2998 RMK AO2 SLP152 T00280011
KMEI 141258Z 20003KT 10SM CLR 02/01 A2996 RMK AO2 SLP146 T00170011
KMEI 141158Z 20005KT 10SM CLR 02/01 A2996 RMK AO2 SLP143 T00170006 10033 20006 53004
KMEI 141058Z 20006KT 10SM CLR 02/01 A2995 RMK AO2 SLP140 T00170006
KMEI 140958Z 00000KT 10SM CLR 02/01 A2993 RMK AO2 SLP135 T00170006
KMEI 140858Z 21003KT 10SM CLR 01/00 A2994 RMK AO2 SLP139 T00110000 56002
KMEI 140758Z 20004KT 10SM CLR 02/00 A2994 RMK AO2 SLP139 T00170000
KMEI 140658Z 18005KT 10SM CLR 02/01 A2994 RMK AO2 SLP139 T00220006
KMEI 140558Z 21005KT 10SM CLR 03/01 A2995 RMK AO2 SLP141 T00330006 10094 20028 401501028 50002